createdAt,value
2024-03-08T00:00:34.401Z,7.22
2024-03-08T00:01:38.128Z,6.15
2024-03-08T00:02:42.458Z,7.07
2024-03-08T00:03:46.238Z,6.15
2024-03-08T00:04:49.688Z,6.95
2024-03-08T00:05:53.000Z,6.40
2024-03-08T00:06:56.654Z,6.95
2024-03-08T00:08:01.551Z,7.47
2024-03-08T00:09:05.222Z,7.57
2024-03-08T00:10:15.328Z,7.50
2024-03-08T00:11:22.970Z,7.25
2024-03-08T00:12:28.565Z,8.32
2024-03-08T00:13:32.030Z,7.47
2024-03-08T00:14:35.433Z,7.65
2024-03-08T00:15:39.004Z,6.88
2024-03-08T00:16:45.139Z,7.97
2024-03-08T00:17:49.304Z,7.13
2024-03-08T00:18:52.923Z,8.20
2024-03-08T00:19:56.393Z,8.25
2024-03-08T00:21:00.294Z,7.50
2024-03-08T00:22:04.185Z,7.32
2024-03-08T00:23:07.664Z,7.38
2024-03-08T00:24:11.229Z,8.18
2024-03-08T00:25:14.696Z,6.75
2024-03-08T00:26:18.122Z,7.13
2024-03-08T00:27:22.647Z,8.27
2024-03-08T00:28:26.602Z,7.15
2024-03-08T00:29:29.886Z,7.85
2024-03-08T00:30:33.337Z,6.88
2024-03-08T00:31:36.803Z,8.93
2024-03-08T00:32:40.395Z,8.07
2024-03-08T00:33:43.816Z,7.15
2024-03-08T00:34:47.308Z,7.53
2024-03-08T00:35:50.821Z,8.57
2024-03-08T00:36:54.436Z,8.07
2024-03-08T00:37:58.147Z,8.20
2024-03-08T00:39:02.442Z,7.57
2024-03-08T00:40:08.624Z,8.65
2024-03-08T00:41:12.307Z,7.53
2024-03-08T00:42:15.850Z,7.50
2024-03-08T00:43:19.426Z,8.88
2024-03-08T00:44:22.845Z,7.50
2024-03-08T00:45:26.261Z,9.13
2024-03-08T00:46:30.241Z,7.75
2024-03-08T00:47:33.705Z,7.85
2024-03-08T00:48:38.112Z,8.63
2024-03-08T00:49:43.360Z,8.23
2024-03-08T00:50:47.354Z,8.13
2024-03-08T00:51:50.801Z,7.35
2024-03-08T00:52:54.157Z,7.35
2024-03-08T00:53:57.751Z,8.82
2024-03-08T00:55:01.310Z,7.00
2024-03-08T00:56:05.888Z,9.68
2024-03-08T00:57:09.222Z,8.02
2024-03-08T00:58:13.092Z,9.90
2024-03-08T00:59:16.420Z,9.23
2024-03-08T01:00:21.008Z,8.18
2024-03-08T01:01:26.149Z,9.38
2024-03-08T01:02:30.742Z,9.00
2024-03-08T01:03:35.740Z,7.75
2024-03-08T01:04:39.289Z,8.90
2024-03-08T01:05:42.504Z,8.18
2024-03-08T01:06:48.711Z,7.72
2024-03-08T01:07:52.989Z,8.57
2024-03-08T01:08:56.455Z,7.85
2024-03-08T01:09:59.780Z,8.30
2024-03-08T01:11:03.185Z,8.57
2024-03-08T01:12:08.801Z,7.25
2024-03-08T01:13:12.469Z,8.38
2024-03-08T01:14:15.796Z,10.75
2024-03-08T01:15:19.436Z,8.48
2024-03-08T01:16:22.912Z,9.05
2024-03-08T01:17:26.426Z,8.48
2024-03-08T01:18:30.625Z,7.90
2024-03-08T01:19:34.683Z,8.43
2024-03-08T01:20:38.176Z,9.48
2024-03-08T01:21:41.610Z,8.50
2024-03-08T01:22:45.113Z,8.82
2024-03-08T01:23:48.740Z,8.85
2024-03-08T01:24:52.056Z,9.25
2024-03-08T01:25:58.446Z,9.60
2024-03-08T01:27:01.891Z,9.45
2024-03-08T01:28:05.806Z,8.43
2024-03-08T01:29:09.666Z,9.20
2024-03-08T01:30:14.193Z,8.45
2024-03-08T01:31:17.652Z,9.10
2024-03-08T01:32:21.066Z,10.60
2024-03-08T01:33:26.997Z,8.90
2024-03-08T01:34:30.610Z,8.50
2024-03-08T01:35:34.014Z,8.77
2024-03-08T01:36:38.797Z,9.18
2024-03-08T01:37:42.125Z,7.75
2024-03-08T01:38:45.638Z,8.68
2024-03-08T01:39:49.101Z,8.15
2024-03-08T01:40:52.826Z,8.52
2024-03-08T01:41:56.146Z,8.02
2024-03-08T01:43:20.533Z,8.40
2024-03-08T01:44:23.815Z,8.73
2024-03-08T01:45:27.251Z,8.80
2024-03-08T01:46:30.840Z,9.23
2024-03-08T01:47:35.325Z,10.00
2024-03-08T01:48:38.999Z,8.63
2024-03-08T01:49:42.615Z,8.52
2024-03-08T01:50:47.348Z,9.60
2024-03-08T01:51:51.324Z,8.20
2024-03-08T01:52:54.616Z,9.23
2024-03-08T01:54:01.782Z,9.07
2024-03-08T01:55:08.975Z,8.80
2024-03-08T01:57:17.784Z,7.72
2024-03-08T01:58:23.522Z,9.65
2024-03-08T01:59:28.465Z,7.43
2024-03-08T02:00:32.170Z,9.48
2024-03-08T02:01:36.158Z,9.02
2024-03-08T02:02:39.564Z,8.98
2024-03-08T02:03:45.727Z,9.63
2024-03-08T02:04:50.504Z,9.02
2024-03-08T02:05:54.238Z,9.32
2024-03-08T02:06:59.663Z,10.80
2024-03-08T02:08:04.189Z,9.15
2024-03-08T02:09:08.569Z,10.30
2024-03-08T02:10:13.963Z,8.85
2024-03-08T02:11:17.843Z,9.27
2024-03-08T02:12:24.640Z,9.90
2024-03-08T02:13:28.709Z,9.60
2024-03-08T02:14:32.828Z,9.50
2024-03-08T02:16:02.543Z,9.45
2024-03-08T02:17:06.442Z,9.00
2024-03-08T02:18:09.903Z,9.25
2024-03-08T02:19:13.249Z,9.68
2024-03-08T02:20:16.783Z,10.05
2024-03-08T02:21:20.451Z,10.82
2024-03-08T02:22:24.456Z,8.38
2024-03-08T02:23:28.772Z,9.73
2024-03-08T02:24:33.450Z,10.02
2024-03-08T02:25:37.442Z,8.88
2024-03-08T02:26:40.846Z,8.52
2024-03-08T02:27:44.494Z,9.98
2024-03-08T02:28:48.383Z,9.05
2024-03-08T02:29:52.385Z,11.00
2024-03-08T02:30:59.177Z,8.75
2024-03-08T02:32:02.653Z,9.80
2024-03-08T02:33:10.891Z,8.68
2024-03-08T02:34:14.912Z,9.35
2024-03-08T02:35:18.293Z,9.10
2024-03-08T02:36:21.729Z,10.10
2024-03-08T02:37:25.135Z,8.73
2024-03-08T02:38:29.958Z,9.52
2024-03-08T02:39:33.627Z,9.70
2024-03-08T02:40:36.898Z,8.50
2024-03-08T02:41:40.379Z,9.40
2024-03-08T02:42:44.525Z,8.93
2024-03-08T02:43:47.901Z,8.55
2024-03-08T02:44:51.401Z,8.95
2024-03-08T02:45:54.829Z,8.65
2024-03-08T02:46:58.325Z,8.43
2024-03-08T02:48:02.261Z,8.88
2024-03-08T02:49:05.730Z,10.00
2024-03-08T02:50:09.547Z,7.70
2024-03-08T02:51:12.982Z,9.05
2024-03-08T02:52:17.854Z,9.35
2024-03-08T02:53:21.211Z,9.20
2024-03-08T02:54:25.474Z,8.52
2024-03-08T02:55:28.906Z,9.20
2024-03-08T02:56:36.625Z,10.00
2024-03-08T02:57:40.011Z,8.88
2024-03-08T02:58:44.236Z,10.90
2024-03-08T02:59:47.613Z,8.15
2024-03-08T03:00:51.366Z,9.55
2024-03-08T03:01:55.034Z,10.13
2024-03-08T03:03:04.428Z,9.43
2024-03-08T03:04:07.794Z,10.40
2024-03-08T03:05:12.993Z,8.65
2024-03-08T03:06:17.122Z,10.63
2024-03-08T03:07:20.901Z,10.50
2024-03-08T03:08:25.411Z,9.02
2024-03-08T03:09:29.300Z,9.77
2024-03-08T03:10:32.792Z,9.15
2024-03-08T03:11:36.361Z,9.43
2024-03-08T03:12:39.882Z,9.73
2024-03-08T03:13:44.037Z,10.68
2024-03-08T03:14:47.398Z,10.73
2024-03-08T03:15:50.909Z,10.48
2024-03-08T03:16:54.291Z,10.00
2024-03-08T03:17:57.779Z,9.88
2024-03-08T03:19:03.447Z,9.18
2024-03-08T03:20:14.276Z,10.05
2024-03-08T03:21:18.965Z,8.52
2024-03-08T03:22:22.829Z,9.65
2024-03-08T03:23:27.926Z,9.88
2024-03-08T03:24:31.376Z,9.60
2024-03-08T03:25:37.184Z,10.60
2024-03-08T03:26:42.459Z,10.15
2024-03-08T03:27:47.875Z,10.18
2024-03-08T03:28:51.310Z,9.48
2024-03-08T03:29:54.772Z,11.13
2024-03-08T03:31:00.261Z,11.00
2024-03-08T03:32:05.384Z,9.48
2024-03-08T03:33:09.434Z,9.60
2024-03-08T03:34:13.544Z,10.90
2024-03-08T03:35:17.604Z,10.32
2024-03-08T03:36:21.547Z,11.77
2024-03-08T03:37:25.082Z,10.77
2024-03-08T03:38:29.562Z,12.07
2024-03-08T03:39:35.880Z,9.75
2024-03-08T03:40:41.736Z,11.40
2024-03-08T03:41:47.909Z,10.73
2024-03-08T03:42:51.289Z,12.07
2024-03-08T03:43:54.660Z,10.65
2024-03-08T03:44:58.129Z,10.93
2024-03-08T03:46:01.664Z,10.57
2024-03-08T03:47:04.885Z,11.07
2024-03-08T03:48:11.680Z,10.82
2024-03-08T03:49:15.675Z,10.00
2024-03-08T03:50:20.743Z,11.27
2024-03-08T03:51:24.128Z,11.82
2024-03-08T03:52:27.723Z,11.65
2024-03-08T03:53:31.092Z,10.95
2024-03-08T03:54:35.065Z,10.68
2024-03-08T03:55:41.270Z,10.55
2024-03-08T03:57:51.809Z,9.65
2024-03-08T03:58:55.228Z,11.40
2024-03-08T04:00:00.142Z,9.95
2024-03-08T04:01:06.567Z,12.10
2024-03-08T04:02:09.967Z,12.20
2024-03-08T04:03:13.767Z,12.45
2024-03-08T04:04:17.643Z,12.32
2024-03-08T04:05:21.061Z,11.65
2024-03-08T04:06:25.105Z,11.27
2024-03-08T04:07:28.576Z,11.00
2024-03-08T04:08:32.774Z,11.60
2024-03-08T04:09:37.231Z,12.20
2024-03-08T04:10:40.587Z,12.15
2024-03-08T04:11:44.173Z,12.63
2024-03-08T04:12:47.667Z,12.90
2024-03-08T04:13:51.111Z,11.18
2024-03-08T04:14:54.972Z,12.07
2024-03-08T04:15:58.468Z,10.80
2024-03-08T04:17:01.838Z,12.20
2024-03-08T04:18:05.845Z,11.90
2024-03-08T04:19:09.919Z,12.27
2024-03-08T04:20:16.444Z,12.77
2024-03-08T04:21:22.853Z,12.23
2024-03-08T04:22:26.697Z,13.75
2024-03-08T04:23:30.328Z,12.90
2024-03-08T04:24:33.755Z,11.75
2024-03-08T04:25:37.058Z,13.57
2024-03-08T04:26:40.472Z,12.23
2024-03-08T04:27:44.172Z,12.05
2024-03-08T04:28:47.884Z,13.30
2024-03-08T04:29:51.482Z,13.10
2024-03-08T04:30:56.177Z,12.20
2024-03-08T04:32:00.003Z,13.45
2024-03-08T04:33:05.240Z,12.50
2024-03-08T04:34:08.625Z,15.07
2024-03-08T04:35:14.268Z,12.48
2024-03-08T04:36:18.481Z,12.55
2024-03-08T04:37:25.322Z,13.20
2024-03-08T04:38:28.678Z,11.23
2024-03-08T04:39:33.199Z,11.93
2024-03-08T04:40:36.625Z,14.13
2024-03-08T04:41:40.538Z,14.15
2024-03-08T04:42:44.601Z,11.95
2024-03-08T04:43:48.234Z,13.25
2024-03-08T04:44:51.535Z,12.40
2024-03-08T04:45:55.086Z,11.30
2024-03-08T04:46:58.395Z,13.95
2024-03-08T04:48:02.078Z,12.25
2024-03-08T04:49:05.854Z,12.57
2024-03-08T04:50:10.499Z,14.52
2024-03-08T04:51:14.063Z,13.23
2024-03-08T04:52:18.102Z,13.73
2024-03-08T04:53:22.065Z,12.98
2024-03-08T04:54:25.584Z,10.35
2024-03-08T04:55:28.927Z,12.15
2024-03-08T04:56:33.108Z,12.02
2024-03-08T04:57:36.722Z,12.70
2024-03-08T04:58:40.118Z,12.20
2024-03-08T04:59:43.404Z,13.68
2024-03-08T05:00:47.278Z,15.25
2024-03-08T05:01:50.694Z,14.25
2024-03-08T05:02:55.027Z,13.02
2024-03-08T05:04:03.320Z,12.02
2024-03-08T05:05:13.194Z,13.65
2024-03-08T05:06:16.555Z,12.27
2024-03-08T05:07:20.913Z,12.63
2024-03-08T05:08:24.257Z,14.23
2024-03-08T05:09:27.705Z,12.80
2024-03-08T05:10:31.175Z,13.40
2024-03-08T05:11:34.680Z,12.68
2024-03-08T05:12:40.168Z,11.98
2024-03-08T05:13:43.569Z,14.07
2024-03-08T05:14:51.393Z,13.02
2024-03-08T05:15:55.723Z,12.23
2024-03-08T05:16:59.171Z,12.60
2024-03-08T05:18:03.021Z,12.90
2024-03-08T05:19:06.716Z,13.63
2024-03-08T05:20:13.911Z,10.85
2024-03-08T05:21:21.803Z,14.60
2024-03-08T05:22:25.502Z,13.52
2024-03-08T05:23:28.927Z,12.27
2024-03-08T05:24:32.540Z,12.63
2024-03-08T05:25:35.876Z,12.93
2024-03-08T05:26:39.720Z,12.10
2024-03-08T05:27:43.089Z,12.82
2024-03-08T05:28:46.495Z,13.25
2024-03-08T05:29:49.892Z,13.30
2024-03-08T05:30:53.370Z,13.10
2024-03-08T05:31:58.201Z,11.63
2024-03-08T05:33:01.815Z,13.80
2024-03-08T05:34:05.307Z,12.45
2024-03-08T05:35:11.646Z,13.25
2024-03-08T05:36:16.666Z,13.90
2024-03-08T05:37:22.213Z,12.63
2024-03-08T05:38:25.930Z,12.82
2024-03-08T05:39:29.343Z,13.00
2024-03-08T05:40:33.511Z,13.00
2024-03-08T05:41:37.163Z,12.25
2024-03-08T05:42:40.655Z,11.55
2024-03-08T05:43:45.124Z,12.52
2024-03-08T05:44:48.362Z,13.25
2024-03-08T05:45:52.086Z,12.35
2024-03-08T05:46:55.363Z,13.82
2024-03-08T05:47:58.986Z,11.93
2024-03-08T05:49:06.847Z,13.77
2024-03-08T05:50:12.848Z,14.38
2024-03-08T05:51:16.639Z,13.25
2024-03-08T05:52:20.147Z,13.57
2024-03-08T05:53:23.494Z,10.95
2024-03-08T05:54:27.407Z,11.73
2024-03-08T05:55:31.408Z,12.80
2024-03-08T05:57:43.765Z,13.95
2024-03-08T05:58:47.152Z,13.88
2024-03-08T05:59:50.876Z,15.68
2024-03-08T06:00:54.558Z,12.95
2024-03-08T06:01:58.136Z,13.02
2024-03-08T06:03:01.722Z,12.05
2024-03-08T06:04:06.007Z,12.18
2024-03-08T06:05:12.816Z,13.18
2024-03-08T06:06:16.874Z,12.43
2024-03-08T06:07:21.693Z,13.43
2024-03-08T06:08:25.021Z,13.52
2024-03-08T06:09:28.490Z,11.98
2024-03-08T06:10:31.903Z,12.75
2024-03-08T06:11:36.071Z,11.48
2024-03-08T06:12:43.372Z,11.75
2024-03-08T06:13:48.021Z,13.18
2024-03-08T06:14:51.392Z,11.45
2024-03-08T06:15:54.869Z,12.05
2024-03-08T06:16:58.175Z,11.45
2024-03-08T06:18:01.828Z,15.30
2024-03-08T06:19:05.287Z,11.93
2024-03-08T06:20:12.092Z,13.02
2024-03-08T06:21:15.728Z,12.13
2024-03-08T06:22:21.344Z,12.85
2024-03-08T06:23:25.162Z,13.18
2024-03-08T06:24:28.681Z,12.43
2024-03-08T06:25:32.689Z,12.55
2024-03-08T06:26:38.106Z,13.32
2024-03-08T06:27:44.180Z,15.07
2024-03-08T06:28:47.717Z,12.32
2024-03-08T06:29:52.192Z,13.35
2024-03-08T06:30:55.765Z,12.70
2024-03-08T06:31:59.029Z,13.70
2024-03-08T06:33:02.779Z,11.68
2024-03-08T06:34:10.356Z,12.65
2024-03-08T06:35:14.147Z,11.43
2024-03-08T06:36:20.441Z,11.70
2024-03-08T06:37:25.344Z,11.70
2024-03-08T06:38:28.863Z,13.80
2024-03-08T06:39:33.264Z,10.93
2024-03-08T06:40:36.769Z,11.85
2024-03-08T06:41:40.347Z,11.75
2024-03-08T06:42:44.432Z,11.48
2024-03-08T06:43:50.404Z,11.82
2024-03-08T06:44:56.905Z,12.20
2024-03-08T06:46:00.330Z,11.85
2024-03-08T06:47:03.764Z,14.10
2024-03-08T06:48:11.253Z,12.20
2024-03-08T06:49:14.851Z,11.77
2024-03-08T06:50:18.549Z,14.07
2024-03-08T06:51:25.609Z,12.40
2024-03-08T06:52:28.938Z,12.30
2024-03-08T06:53:33.081Z,12.05
2024-03-08T06:54:40.262Z,12.88
2024-03-08T06:55:43.776Z,12.20
2024-03-08T06:56:47.261Z,10.85
2024-03-08T06:57:51.102Z,15.25
2024-03-08T06:58:54.596Z,13.02
2024-03-08T06:59:58.725Z,14.73
2024-03-08T07:01:05.929Z,11.40
2024-03-08T07:02:10.801Z,13.10
2024-03-08T07:03:18.811Z,13.75
2024-03-08T07:04:23.266Z,11.73
2024-03-08T07:05:29.463Z,13.52
2024-03-08T07:06:38.210Z,12.98
2024-03-08T07:07:44.451Z,13.90
2024-03-08T07:08:47.828Z,12.80
2024-03-08T07:09:51.282Z,11.65
2024-03-08T07:10:55.938Z,14.13
2024-03-08T07:11:59.462Z,13.48
2024-03-08T07:13:05.882Z,11.93
2024-03-08T07:14:10.216Z,11.70
2024-03-08T07:15:17.591Z,12.82
2024-03-08T07:17:26.363Z,11.15
2024-03-08T07:18:31.912Z,11.82
2024-03-08T07:19:36.697Z,13.82
2024-03-08T07:20:40.284Z,11.40
2024-03-08T07:21:45.025Z,11.10
2024-03-08T07:22:52.393Z,12.55
2024-03-08T07:24:01.969Z,11.40
2024-03-08T07:25:23.424Z,13.15
2024-03-08T07:26:27.255Z,13.18
2024-03-08T07:27:30.637Z,13.95
2024-03-08T07:28:34.007Z,14.30
2024-03-08T07:29:37.633Z,12.90
2024-03-08T07:31:01.273Z,12.52
2024-03-08T07:32:22.429Z,11.23
2024-03-08T07:33:26.926Z,11.85
2024-03-08T07:34:33.488Z,13.02
2024-03-08T07:35:39.794Z,11.40
2024-03-08T07:36:43.320Z,10.93
2024-03-08T07:37:47.371Z,12.95
2024-03-08T07:38:51.342Z,14.70
2024-03-08T07:39:54.735Z,12.55
2024-03-08T07:40:58.743Z,11.95
2024-03-08T07:42:02.324Z,12.93
2024-03-08T07:43:05.959Z,13.35
2024-03-08T07:44:10.685Z,13.88
2024-03-08T07:45:14.399Z,13.00
2024-03-08T07:46:20.067Z,12.20
2024-03-08T07:47:25.348Z,10.82
2024-03-08T07:48:29.375Z,12.95
2024-03-08T07:49:32.994Z,12.00
2024-03-08T07:50:36.848Z,12.13
2024-03-08T07:51:40.285Z,12.68
2024-03-08T07:52:43.924Z,11.90
2024-03-08T07:53:47.347Z,11.75
2024-03-08T07:54:50.858Z,12.82
2024-03-08T07:55:54.388Z,11.55
2024-03-08T07:56:58.252Z,11.77
2024-03-08T07:58:01.875Z,11.57
2024-03-08T07:59:08.232Z,13.70
2024-03-08T08:00:12.493Z,10.35
2024-03-08T08:01:22.062Z,12.07
2024-03-08T08:02:26.082Z,11.20
2024-03-08T08:03:29.532Z,11.35
2024-03-08T08:04:33.201Z,11.98
2024-03-08T08:05:37.253Z,11.68
2024-03-08T08:06:42.946Z,12.25
2024-03-08T08:07:49.172Z,11.80
2024-03-08T08:08:54.137Z,11.40
2024-03-08T08:09:57.600Z,11.77
2024-03-08T08:11:01.200Z,11.75
2024-03-08T08:12:05.144Z,12.00
2024-03-08T08:13:08.760Z,11.07
2024-03-08T08:14:12.262Z,13.73
2024-03-08T08:15:19.291Z,13.07
2024-03-08T08:16:25.337Z,12.02
2024-03-08T08:17:28.920Z,11.50
2024-03-08T08:18:32.405Z,12.70
2024-03-08T08:19:40.194Z,12.50
2024-03-08T08:20:44.465Z,12.32
2024-03-08T08:21:48.300Z,11.52
2024-03-08T08:22:52.164Z,13.05
2024-03-08T08:23:56.308Z,11.98
2024-03-08T08:24:59.672Z,10.88
2024-03-08T08:26:06.271Z,11.23
2024-03-08T08:27:10.773Z,11.48
2024-03-08T08:28:14.295Z,11.20
2024-03-08T08:29:17.903Z,13.30
2024-03-08T08:30:22.229Z,11.50
2024-03-08T08:31:26.043Z,12.02
2024-03-08T08:32:29.681Z,11.57
2024-03-08T08:33:34.399Z,12.48
2024-03-08T08:34:38.107Z,11.32
2024-03-08T08:35:41.569Z,11.48
2024-03-08T08:36:45.151Z,13.70
2024-03-08T08:37:48.624Z,12.98
2024-03-08T08:38:52.342Z,11.68
2024-03-08T08:39:56.042Z,12.90
2024-03-08T08:40:59.703Z,12.02
2024-03-08T08:42:05.203Z,11.90
2024-03-08T08:43:08.776Z,12.38
2024-03-08T08:44:16.504Z,11.05
2024-03-08T08:45:24.469Z,12.43
2024-03-08T08:46:30.251Z,13.65
2024-03-08T08:47:35.276Z,12.15
2024-03-08T08:48:38.720Z,11.57
2024-03-08T08:49:42.388Z,11.88
2024-03-08T08:50:46.510Z,12.43
2024-03-08T08:51:54.061Z,11.57
2024-03-08T08:52:59.229Z,12.43
2024-03-08T08:54:11.035Z,11.38
2024-03-08T08:55:16.303Z,11.02
2024-03-08T08:56:20.404Z,12.63
2024-03-08T08:57:23.681Z,12.32
2024-03-08T08:58:27.308Z,12.75
2024-03-08T08:59:31.815Z,11.85
2024-03-08T09:00:36.165Z,11.85
2024-03-08T09:01:39.629Z,9.48
2024-03-08T09:02:43.974Z,11.65
2024-03-08T09:03:51.661Z,12.88
2024-03-08T09:04:55.423Z,11.40
2024-03-08T09:05:59.618Z,11.07
2024-03-08T09:07:03.357Z,12.32
2024-03-08T09:08:07.333Z,12.45
2024-03-08T09:09:12.366Z,12.27
2024-03-08T09:10:18.009Z,14.82
2024-03-08T09:11:22.741Z,12.35
2024-03-08T09:12:26.567Z,12.68
2024-03-08T09:13:32.597Z,12.02
2024-03-08T09:14:37.535Z,12.68
2024-03-08T09:15:41.862Z,15.23
2024-03-08T09:16:45.135Z,13.48
2024-03-08T09:17:49.942Z,13.40
2024-03-08T09:18:53.439Z,13.27
2024-03-08T09:19:57.021Z,12.90
2024-03-08T09:21:01.228Z,13.63
2024-03-08T09:22:05.825Z,13.02
2024-03-08T09:23:10.330Z,13.45
2024-03-08T09:24:14.451Z,12.88
2024-03-08T09:25:18.028Z,12.27
2024-03-08T09:26:25.997Z,12.63
2024-03-08T09:27:33.097Z,12.70
2024-03-08T09:28:37.077Z,11.93
2024-03-08T09:29:40.387Z,12.88
2024-03-08T09:30:53.793Z,13.18
2024-03-08T09:32:00.791Z,11.85
2024-03-08T09:33:04.447Z,13.68
2024-03-08T09:34:12.050Z,11.57
2024-03-08T09:35:18.785Z,12.77
2024-03-08T09:36:22.148Z,14.93
2024-03-08T09:37:25.572Z,13.27
2024-03-08T09:38:29.035Z,12.30
2024-03-08T09:39:33.769Z,13.45
2024-03-08T09:40:37.377Z,12.60
2024-03-08T09:41:41.002Z,13.43
2024-03-08T09:42:44.426Z,12.07
2024-03-08T09:43:48.564Z,12.90
2024-03-08T09:44:52.244Z,14.60
2024-03-08T09:45:56.731Z,12.88
2024-03-08T09:47:01.282Z,12.77
2024-03-08T09:48:05.573Z,12.57
2024-03-08T09:49:09.974Z,13.27
2024-03-08T09:50:17.456Z,13.40
2024-03-08T09:52:29.083Z,12.23
2024-03-08T09:53:34.971Z,11.73
2024-03-08T09:54:41.378Z,13.23
2024-03-08T09:55:46.956Z,12.57
2024-03-08T09:56:53.398Z,13.85
2024-03-08T09:58:15.723Z,15.55
2024-03-08T09:59:46.181Z,13.88
2024-03-08T10:00:49.898Z,11.88
2024-03-08T10:01:54.087Z,13.60
2024-03-08T10:03:03.245Z,13.18
2024-03-08T10:04:07.116Z,14.02
2024-03-08T10:05:13.301Z,13.32
2024-03-08T10:06:17.159Z,12.93
2024-03-08T10:07:21.174Z,13.55
2024-03-08T10:08:25.510Z,11.93
2024-03-08T10:09:29.789Z,12.90
2024-03-08T10:10:35.391Z,13.70
2024-03-08T10:11:39.826Z,13.38
2024-03-08T10:12:43.656Z,13.57
2024-03-08T10:13:50.033Z,11.75
2024-03-08T10:14:58.184Z,14.48
2024-03-08T10:16:02.971Z,13.32
2024-03-08T10:17:07.296Z,12.82
2024-03-08T10:18:12.198Z,15.55
2024-03-08T10:19:15.845Z,14.07
2024-03-08T10:20:20.980Z,12.75
2024-03-08T10:21:24.800Z,13.45
2024-03-08T10:22:29.109Z,14.18
2024-03-08T10:23:35.196Z,13.15
2024-03-08T10:24:41.223Z,13.23
2024-03-08T10:25:45.755Z,14.48
2024-03-08T10:26:49.567Z,14.25
2024-03-08T10:27:55.695Z,12.30
2024-03-08T10:29:02.068Z,11.98
2024-03-08T10:30:08.042Z,13.60
2024-03-08T10:31:12.245Z,12.10
2024-03-08T10:32:16.478Z,13.52
2024-03-08T10:33:20.339Z,13.43
2024-03-08T10:34:26.116Z,13.65
2024-03-08T10:35:29.981Z,13.35
2024-03-08T10:36:37.537Z,13.77
2024-03-08T10:37:59.191Z,11.95
2024-03-08T10:39:04.020Z,10.25
2024-03-08T10:40:17.398Z,11.60
2024-03-08T10:41:27.064Z,10.27
2024-03-08T10:42:33.680Z,14.02
2024-03-08T10:45:32.611Z,12.65
2024-03-08T10:46:57.604Z,12.15
2024-03-08T10:48:43.238Z,11.52
2024-03-08T10:49:57.438Z,12.98
2024-03-08T10:51:09.106Z,12.90
2024-03-08T10:52:15.916Z,14.43
2024-03-08T10:53:23.562Z,13.07
2024-03-08T10:54:29.449Z,11.70
2024-03-08T10:55:35.550Z,13.18
2024-03-08T10:56:39.513Z,12.38
2024-03-08T10:57:44.917Z,12.80
2024-03-08T10:58:49.988Z,12.38
2024-03-08T10:59:57.617Z,12.35
2024-03-08T11:01:04.201Z,13.20
2024-03-08T11:02:08.201Z,14.90
2024-03-08T11:03:46.984Z,13.90
2024-03-08T11:04:52.326Z,12.43
2024-03-08T11:05:56.298Z,13.82
2024-03-08T11:07:08.747Z,13.23
2024-03-08T11:08:21.314Z,14.40
2024-03-08T11:09:40.321Z,12.80
2024-03-08T11:10:55.865Z,13.77
2024-03-08T11:12:21.570Z,13.00
2024-03-08T11:13:43.161Z,13.38
2024-03-08T11:14:50.645Z,15.25
2024-03-08T11:15:54.378Z,12.52
2024-03-08T11:16:57.885Z,14.77
2024-03-08T11:18:02.605Z,13.05
2024-03-08T11:19:26.653Z,13.57
2024-03-08T11:20:34.083Z,13.55
2024-03-08T11:21:41.233Z,14.18
2024-03-08T11:24:13.228Z,12.27
2024-03-08T11:25:33.691Z,13.65
2024-03-08T11:26:40.959Z,13.27
2024-03-08T11:29:19.116Z,12.50
2024-03-08T11:30:25.772Z,10.77
2024-03-08T11:31:30.029Z,13.00
2024-03-08T11:32:34.410Z,13.57
2024-03-08T11:33:45.518Z,12.57
2024-03-08T11:34:51.912Z,13.32
2024-03-08T11:36:23.751Z,13.48
2024-03-08T11:37:31.942Z,13.82
2024-03-08T11:39:53.052Z,12.90
2024-03-08T11:40:59.120Z,11.88
2024-03-08T11:42:02.786Z,11.52
2024-03-08T11:43:08.787Z,11.57
2024-03-08T11:44:13.575Z,12.02
2024-03-08T11:45:19.353Z,12.52
2024-03-08T11:46:23.000Z,12.25
2024-03-08T11:47:28.012Z,11.18
2024-03-08T11:48:32.306Z,12.02
2024-03-08T11:49:35.990Z,11.60
2024-03-08T11:50:40.102Z,10.68
2024-03-08T11:51:45.324Z,10.32
2024-03-08T11:52:49.247Z,11.05
2024-03-08T11:53:53.022Z,11.98
2024-03-08T11:54:59.890Z,10.88
2024-03-08T11:56:14.889Z,11.02
2024-03-08T11:57:21.551Z,11.98
2024-03-08T11:58:25.157Z,12.15
2024-03-08T11:59:30.292Z,11.18
2024-03-08T12:00:36.946Z,10.57
2024-03-08T12:01:41.193Z,10.30
2024-03-08T12:02:52.314Z,10.95
2024-03-08T12:04:00.563Z,10.98
2024-03-08T12:05:04.826Z,10.93
2024-03-08T12:06:10.575Z,11.35
2024-03-08T12:07:15.699Z,10.35
2024-03-08T12:08:19.315Z,10.50
2024-03-08T12:09:23.914Z,11.27
2024-03-08T12:10:29.668Z,10.70
2024-03-08T12:11:34.757Z,10.73
2024-03-08T12:12:41.321Z,10.38
2024-03-08T12:13:48.256Z,10.68
2024-03-08T12:14:53.344Z,11.23
2024-03-08T12:16:00.529Z,10.20
2024-03-08T12:17:04.287Z,10.63
2024-03-08T12:18:08.989Z,9.48
2024-03-08T12:19:12.666Z,9.55
2024-03-08T12:20:33.295Z,9.88
2024-03-08T12:21:38.448Z,9.63
2024-03-08T12:22:46.166Z,9.98
2024-03-08T12:24:04.306Z,9.52
2024-03-08T12:25:11.925Z,9.63
2024-03-08T12:26:17.280Z,10.30
2024-03-08T12:27:21.886Z,9.60
2024-03-08T12:28:25.333Z,9.43
2024-03-08T12:29:29.776Z,10.57
2024-03-08T12:30:35.151Z,9.85
2024-03-08T12:31:38.784Z,9.40
2024-03-08T12:32:48.221Z,9.98
2024-03-08T12:33:58.210Z,9.25
2024-03-08T12:35:01.749Z,8.95
2024-03-08T12:36:08.932Z,9.48
2024-03-08T12:37:14.254Z,9.32
2024-03-08T12:38:17.841Z,9.90
2024-03-08T12:39:28.822Z,8.15
2024-03-08T12:40:36.060Z,9.43
2024-03-08T12:41:42.766Z,9.65
2024-03-08T12:42:48.773Z,9.35
2024-03-08T12:43:52.325Z,10.13
2024-03-08T12:44:55.987Z,8.73
2024-03-08T12:45:59.721Z,10.25
2024-03-08T12:47:04.896Z,10.85
2024-03-08T12:48:18.890Z,9.10
2024-03-08T12:49:25.553Z,8.70
2024-03-08T12:50:29.007Z,9.80
2024-03-08T12:51:32.409Z,9.30
2024-03-08T12:52:38.198Z,9.85
2024-03-08T12:53:42.217Z,9.27
2024-03-08T12:54:45.609Z,8.75
2024-03-08T12:55:49.164Z,9.55
2024-03-08T12:56:55.762Z,8.07
2024-03-08T12:58:00.939Z,10.57
2024-03-08T12:59:06.143Z,9.20
2024-03-08T13:00:14.496Z,9.80
2024-03-08T13:01:19.338Z,10.00
2024-03-08T13:02:22.880Z,9.57
2024-03-08T13:03:26.336Z,8.45
2024-03-08T13:04:29.822Z,9.27
2024-03-08T13:05:33.181Z,8.80
2024-03-08T13:06:36.643Z,8.32
2024-03-08T13:07:40.158Z,10.40
2024-03-08T13:08:45.533Z,8.60
2024-03-08T13:09:48.949Z,9.57
2024-03-08T13:10:52.949Z,9.50
2024-03-08T13:11:56.705Z,8.68
2024-03-08T13:13:00.146Z,10.30
2024-03-08T13:14:05.756Z,9.55
2024-03-08T13:15:12.397Z,9.30
2024-03-08T13:16:20.645Z,9.40
2024-03-08T13:17:24.257Z,8.13
2024-03-08T13:18:28.585Z,8.82
2024-03-08T13:19:32.302Z,9.15
2024-03-08T13:20:43.452Z,8.77
2024-03-08T13:21:51.478Z,9.45
2024-03-08T13:22:55.262Z,9.52
2024-03-08T13:24:00.702Z,8.52
2024-03-08T13:25:04.657Z,9.32
2024-03-08T13:26:18.042Z,10.15
2024-03-08T13:28:29.387Z,9.45
2024-03-08T13:29:42.623Z,9.70
2024-03-08T13:30:46.008Z,8.55
2024-03-08T13:31:53.608Z,9.75
2024-03-08T13:32:57.178Z,8.13
2024-03-08T13:34:00.603Z,9.10
2024-03-08T13:35:06.066Z,9.40
2024-03-08T13:36:22.372Z,10.73
2024-03-08T13:37:25.949Z,9.32
2024-03-08T13:38:29.602Z,10.23
2024-03-08T13:39:41.909Z,9.93
2024-03-08T13:40:45.581Z,9.70
2024-03-08T13:41:49.164Z,9.45
2024-03-08T13:42:52.756Z,10.20
2024-03-08T13:43:57.528Z,9.77
2024-03-08T13:45:01.133Z,8.85
2024-03-08T13:46:05.893Z,9.63
2024-03-08T13:47:09.450Z,8.20
2024-03-08T13:48:14.524Z,10.80
2024-03-08T13:49:18.073Z,7.97
2024-03-08T13:50:25.147Z,9.20
2024-03-08T13:52:31.979Z,8.93
2024-03-08T13:53:38.235Z,9.80
2024-03-08T13:54:42.616Z,10.48
2024-03-08T13:55:46.539Z,9.85
2024-03-08T13:56:51.105Z,8.75
2024-03-08T13:57:54.881Z,9.90
2024-03-08T13:58:58.881Z,9.60
2024-03-08T14:00:02.778Z,9.15
2024-03-08T14:01:16.480Z,9.55
2024-03-08T14:02:20.149Z,9.18
2024-03-08T14:03:25.245Z,10.70
2024-03-08T14:04:29.692Z,9.70
2024-03-08T14:05:36.368Z,9.88
2024-03-08T14:06:39.887Z,9.35
2024-03-08T14:07:43.391Z,9.20
2024-03-08T14:08:47.600Z,10.18
2024-03-08T14:09:54.434Z,9.02
2024-03-08T14:10:57.867Z,10.48
2024-03-08T14:12:01.278Z,9.35
2024-03-08T14:13:06.337Z,10.18
2024-03-08T14:14:10.513Z,9.05
2024-03-08T14:15:14.272Z,9.23
2024-03-08T14:16:17.605Z,9.32
2024-03-08T14:17:21.917Z,10.40
2024-03-08T14:18:25.643Z,9.90
2024-03-08T14:19:32.352Z,9.43
2024-03-08T14:20:35.861Z,9.70
2024-03-08T14:21:40.987Z,9.68
2024-03-08T14:22:44.501Z,9.10
2024-03-08T14:23:50.102Z,9.60